createdAt,value
2023-03-16T00:00:16.575Z,10.07
2023-03-16T00:02:20.203Z,9.67
2023-03-16T00:04:21.843Z,11.00
2023-03-16T00:06:25.886Z,13.30
2023-03-16T00:08:27.488Z,11.93
2023-03-16T00:10:29.256Z,11.83
2023-03-16T00:12:34.558Z,11.20
2023-03-16T00:14:37.952Z,11.30
2023-03-16T00:16:39.562Z,9.37
2023-03-16T00:18:44.527Z,7.40
2023-03-16T00:20:52.809Z,5.90
2023-03-16T00:22:54.296Z,4.83
2023-03-16T00:24:56.453Z,4.53
2023-03-16T00:26:57.923Z,4.30
2023-03-16T00:28:59.470Z,4.03
2023-03-16T00:31:05.513Z,3.77
2023-03-16T00:33:07.240Z,3.83
2023-03-16T00:35:09.727Z,4.27
2023-03-16T00:37:15.307Z,4.10
2023-03-16T00:39:16.829Z,4.10
2023-03-16T00:41:18.283Z,4.30
2023-03-16T00:43:29.404Z,4.00
2023-03-16T00:45:32.465Z,3.63
2023-03-16T00:47:36.256Z,3.87
2023-03-16T00:49:43.328Z,3.70
2023-03-16T00:51:46.394Z,3.67
2023-03-16T00:53:52.116Z,4.07
2023-03-16T00:55:53.560Z,3.90
2023-03-16T00:57:55.160Z,4.40
2023-03-16T00:59:56.686Z,4.03
2023-03-16T01:01:58.321Z,4.00
2023-03-16T01:04:01.607Z,4.60
2023-03-16T01:06:05.868Z,4.40
2023-03-16T01:08:08.920Z,4.70
2023-03-16T01:10:11.134Z,4.37
2023-03-16T01:12:16.202Z,4.13
2023-03-16T01:14:20.090Z,4.13
2023-03-16T01:16:24.697Z,4.00
2023-03-16T01:18:28.245Z,4.27
2023-03-16T01:20:30.059Z,3.97
2023-03-16T01:22:33.725Z,4.30
2023-03-16T01:24:36.780Z,4.43
2023-03-16T01:26:38.325Z,4.40
2023-03-16T01:28:40.140Z,4.23
2023-03-16T01:30:46.265Z,4.97
2023-03-16T01:32:51.672Z,5.40
2023-03-16T01:34:53.658Z,5.30
2023-03-16T01:36:56.928Z,6.10
2023-03-16T01:39:24.614Z,5.90
2023-03-16T01:41:29.922Z,6.37
2023-03-16T01:43:33.388Z,6.47
2023-03-16T01:46:00.270Z,7.07
2023-03-16T01:48:01.922Z,6.13
2023-03-16T01:50:04.881Z,6.30
2023-03-16T01:52:14.287Z,6.90
2023-03-16T01:54:21.983Z,7.37
2023-03-16T01:56:31.082Z,7.00
2023-03-16T01:58:32.911Z,7.50
2023-03-16T02:00:37.010Z,6.93
2023-03-16T02:02:54.898Z,6.10
2023-03-16T02:05:33.301Z,6.93
2023-03-16T02:07:42.405Z,7.60
2023-03-16T02:09:47.055Z,8.70
2023-03-16T02:11:49.280Z,10.00
2023-03-16T02:13:52.693Z,10.50
2023-03-16T02:15:55.496Z,10.63
2023-03-16T02:18:01.256Z,10.23
2023-03-16T02:20:32.277Z,8.80
2023-03-16T02:22:36.223Z,9.00
2023-03-16T02:24:38.426Z,8.40
2023-03-16T02:27:04.557Z,7.37
2023-03-16T02:29:43.881Z,7.77
2023-03-16T02:31:46.926Z,8.10
2023-03-16T02:33:51.017Z,6.80
2023-03-16T02:35:54.179Z,8.10
2023-03-16T02:37:56.448Z,7.30
2023-03-16T02:40:20.797Z,7.40
2023-03-16T02:42:26.387Z,8.97
2023-03-16T02:44:35.171Z,7.73
2023-03-16T02:46:38.783Z,8.43
2023-03-16T02:48:53.233Z,8.27
2023-03-16T02:50:55.039Z,8.43
2023-03-16T02:52:56.968Z,8.80
2023-03-16T02:54:58.681Z,9.00
2023-03-16T02:57:00.264Z,8.17
2023-03-16T02:59:06.276Z,7.20
2023-03-16T03:01:08.565Z,5.90
2023-03-16T03:03:11.044Z,6.10
2023-03-16T03:05:13.403Z,5.83
2023-03-16T03:07:16.066Z,5.30
2023-03-16T03:09:34.853Z,6.00
2023-03-16T03:11:39.166Z,6.23
2023-03-16T03:13:43.754Z,5.73
2023-03-16T03:15:49.967Z,6.53
2023-03-16T03:17:51.767Z,6.00
2023-03-16T03:19:53.589Z,5.90
2023-03-16T03:21:58.078Z,5.97
2023-03-16T03:23:59.572Z,5.90
2023-03-16T03:26:04.939Z,6.67
2023-03-16T03:28:08.311Z,6.80
2023-03-16T03:30:12.798Z,6.80
2023-03-16T03:32:14.355Z,6.93
2023-03-16T03:34:16.076Z,6.63
2023-03-16T03:36:19.680Z,6.70
2023-03-16T03:38:21.194Z,7.07
2023-03-16T03:40:23.669Z,6.80
2023-03-16T03:42:31.920Z,7.13
2023-03-16T03:44:40.465Z,7.90
2023-03-16T03:46:45.191Z,7.90
2023-03-16T03:48:46.882Z,6.97
2023-03-16T03:50:54.566Z,7.67
2023-03-16T03:53:12.437Z,7.57
2023-03-16T03:55:33.902Z,7.87
2023-03-16T03:57:36.368Z,8.00
2023-03-16T03:59:43.536Z,8.80
2023-03-16T04:02:01.046Z,8.13
2023-03-16T04:04:12.400Z,8.60
2023-03-16T04:06:13.870Z,8.47
2023-03-16T04:08:15.708Z,8.03
2023-03-16T04:10:17.774Z,9.10
2023-03-16T04:12:19.524Z,8.23
2023-03-16T04:14:23.213Z,8.27
2023-03-16T04:16:27.264Z,8.40
2023-03-16T04:18:38.578Z,8.37
2023-03-16T04:20:42.065Z,9.00
2023-03-16T04:22:47.521Z,9.07
2023-03-16T04:24:49.839Z,8.50
2023-03-16T04:26:54.466Z,7.87
2023-03-16T04:28:56.706Z,8.77
2023-03-16T04:31:07.239Z,8.60
2023-03-16T04:33:14.877Z,8.80
2023-03-16T04:35:17.566Z,8.97
2023-03-16T04:37:23.804Z,9.13
2023-03-16T04:39:27.858Z,8.03
2023-03-16T04:41:29.742Z,7.20
2023-03-16T04:43:36.769Z,6.73
2023-03-16T04:45:45.054Z,6.70
2023-03-16T04:47:47.912Z,7.07
2023-03-16T04:49:51.941Z,6.60
2023-03-16T04:51:53.601Z,6.57
2023-03-16T04:53:56.291Z,7.03
2023-03-16T04:56:04.433Z,6.13
2023-03-16T04:58:06.707Z,7.43
2023-03-16T05:00:20.621Z,7.50
2023-03-16T05:02:36.124Z,6.87
2023-03-16T05:04:37.679Z,7.07
2023-03-16T05:06:40.119Z,8.00
2023-03-16T05:08:44.662Z,7.57
2023-03-16T05:10:48.245Z,8.00
2023-03-16T05:12:50.583Z,7.90
2023-03-16T05:14:53.157Z,9.07
2023-03-16T05:17:05.140Z,8.90
2023-03-16T05:19:07.146Z,9.03
2023-03-16T05:21:10.185Z,8.67
2023-03-16T05:23:35.322Z,8.00
2023-03-16T05:25:40.285Z,7.60
2023-03-16T05:27:48.449Z,7.63
2023-03-16T05:29:56.045Z,7.87
2023-03-16T05:31:59.548Z,7.40
2023-03-16T05:34:04.056Z,8.00
2023-03-16T05:36:06.356Z,8.03
2023-03-16T05:38:09.891Z,8.37
2023-03-16T05:40:18.539Z,7.50
2023-03-16T05:42:27.387Z,7.37
2023-03-16T05:44:34.131Z,6.87
2023-03-16T05:46:50.002Z,6.33
2023-03-16T05:48:51.927Z,5.80
2023-03-16T05:50:58.311Z,5.93
2023-03-16T05:53:04.274Z,6.10
2023-03-16T05:55:08.305Z,6.03
2023-03-16T05:57:14.243Z,5.77
2023-03-16T05:59:18.291Z,5.47
2023-03-16T06:01:25.496Z,6.17
2023-03-16T06:03:34.409Z,6.33
2023-03-16T06:05:36.167Z,5.53
2023-03-16T06:07:38.499Z,6.10
2023-03-16T06:09:40.467Z,5.83
2023-03-16T06:11:47.978Z,5.93
2023-03-16T06:13:51.426Z,6.37
2023-03-16T06:15:53.109Z,5.30
2023-03-16T06:17:56.602Z,5.70
2023-03-16T06:19:58.168Z,6.60
2023-03-16T06:21:59.791Z,6.07
2023-03-16T06:24:07.772Z,5.93
2023-03-16T06:26:09.337Z,9.20
2023-03-16T06:28:17.163Z,8.90
2023-03-16T06:30:24.196Z,8.53
2023-03-16T06:32:26.342Z,7.40
2023-03-16T06:34:30.517Z,6.43
2023-03-16T06:36:32.620Z,5.93
2023-03-16T06:38:36.573Z,6.63
2023-03-16T06:40:42.968Z,6.77
2023-03-16T06:42:46.802Z,6.50
2023-03-16T06:44:52.801Z,6.57
2023-03-16T06:46:54.600Z,6.57
2023-03-16T06:48:56.190Z,6.73
2023-03-16T06:50:58.166Z,6.43
2023-03-16T06:53:05.400Z,6.73
2023-03-16T06:55:08.918Z,6.60
2023-03-16T06:57:14.086Z,5.87
2023-03-16T06:59:15.771Z,5.87
2023-03-16T07:01:17.533Z,5.80
2023-03-16T07:03:19.394Z,6.47
2023-03-16T07:05:26.686Z,5.87
2023-03-16T07:07:28.321Z,6.17
2023-03-16T07:09:29.980Z,6.00
2023-03-16T07:11:32.751Z,5.80
2023-03-16T07:13:35.589Z,6.33
2023-03-16T07:15:37.499Z,6.30
2023-03-16T07:17:42.690Z,6.20
2023-03-16T07:19:44.762Z,5.90
2023-03-16T07:21:48.981Z,6.30
2023-03-16T07:23:58.101Z,6.03
2023-03-16T07:26:04.763Z,6.50
2023-03-16T07:28:08.514Z,5.73
2023-03-16T07:30:15.498Z,5.40
2023-03-16T07:32:20.871Z,4.80
2023-03-16T07:34:23.777Z,4.57
2023-03-16T07:36:29.970Z,5.27
2023-03-16T07:38:37.546Z,4.20
2023-03-16T07:40:40.397Z,4.70
2023-03-16T07:42:48.250Z,4.53
2023-03-16T07:44:59.974Z,4.97
2023-03-16T07:47:01.746Z,3.92
2023-03-16T07:49:05.262Z,4.55
2023-03-16T07:51:08.489Z,4.55
2023-03-16T07:53:12.374Z,3.97
2023-03-16T07:55:19.758Z,3.75
2023-03-16T07:57:24.157Z,4.28
2023-03-16T07:59:25.717Z,3.95
2023-03-16T08:01:27.247Z,4.50
2023-03-16T08:03:30.238Z,4.22
2023-03-16T08:05:37.056Z,3.80
2023-03-16T08:07:44.843Z,3.90
2023-03-16T08:09:53.415Z,4.65
2023-03-16T08:12:05.946Z,4.13
2023-03-16T08:14:09.410Z,3.60
2023-03-16T08:16:36.616Z,3.50
2023-03-16T08:18:39.803Z,4.10
2023-03-16T08:20:42.101Z,4.00
2023-03-16T08:22:47.087Z,3.88
2023-03-16T08:24:51.999Z,3.42
2023-03-16T08:26:54.199Z,4.03
2023-03-16T08:28:55.855Z,3.80
2023-03-16T08:31:00.440Z,3.40
2023-03-16T08:33:26.087Z,4.28
2023-03-16T08:35:30.501Z,3.65
2023-03-16T08:37:32.375Z,3.20
2023-03-16T08:39:35.659Z,3.35
2023-03-16T08:41:43.495Z,3.22
2023-03-16T08:43:56.133Z,3.50
2023-03-16T08:45:59.058Z,2.80
2023-03-16T08:48:07.434Z,3.00
2023-03-16T08:50:12.413Z,3.30
2023-03-16T08:52:23.195Z,3.72
2023-03-16T08:54:25.836Z,3.67
2023-03-16T08:56:28.946Z,3.42
2023-03-16T08:58:35.326Z,3.45
2023-03-16T09:00:37.561Z,3.22
2023-03-16T09:02:43.064Z,3.00
2023-03-16T09:04:46.070Z,3.15
2023-03-16T09:07:05.924Z,3.00
2023-03-16T09:09:09.907Z,2.95
2023-03-16T09:11:15.392Z,2.90
2023-03-16T09:13:17.637Z,2.88
2023-03-16T09:15:20.978Z,2.75
2023-03-16T09:17:22.731Z,2.65
2023-03-16T09:19:25.240Z,2.53
2023-03-16T09:21:26.688Z,2.50
2023-03-16T09:23:29.214Z,2.55
2023-03-16T09:25:32.438Z,2.78
2023-03-16T09:27:35.069Z,2.47
2023-03-16T09:29:41.259Z,2.17
2023-03-16T09:31:43.190Z,2.33
2023-03-16T09:33:44.992Z,2.58
2023-03-16T09:35:46.993Z,2.30
2023-03-16T09:38:05.065Z,2.25
2023-03-16T09:40:12.076Z,2.38
2023-03-16T09:42:19.091Z,2.20
2023-03-16T09:44:46.756Z,2.13
2023-03-16T09:46:51.247Z,1.90
2023-03-16T09:48:54.314Z,1.70
2023-03-16T09:50:58.468Z,1.80
2023-03-16T09:53:29.684Z,1.60
2023-03-16T09:55:33.706Z,1.48
2023-03-16T09:57:44.582Z,1.80
2023-03-16T09:59:46.132Z,1.67
2023-03-16T10:01:57.158Z,1.77
2023-03-16T10:04:11.341Z,1.90
2023-03-16T10:06:14.107Z,1.77
2023-03-16T10:08:26.105Z,1.52
2023-03-16T10:10:36.788Z,1.40
2023-03-16T10:12:44.120Z,1.52
2023-03-16T10:15:09.703Z,1.45
2023-03-16T10:17:21.976Z,1.65
2023-03-16T10:19:39.197Z,1.48
2023-03-16T10:21:44.891Z,1.25
2023-03-16T10:23:48.528Z,1.40
2023-03-16T10:25:54.840Z,1.38
2023-03-16T10:27:57.343Z,1.35
2023-03-16T10:30:01.575Z,1.20
2023-03-16T10:32:13.337Z,0.90
2023-03-16T10:34:15.299Z,1.10
2023-03-16T10:36:33.533Z,1.10
2023-03-16T10:38:50.508Z,1.20
2023-03-16T10:40:53.094Z,1.05
2023-03-16T10:42:54.964Z,1.02
2023-03-16T10:44:58.340Z,0.90
2023-03-16T10:47:25.171Z,1.00
2023-03-16T10:49:29.122Z,1.00
2023-03-16T10:51:34.771Z,1.10
2023-03-16T10:53:40.628Z,0.95
2023-03-16T10:55:44.970Z,1.08
2023-03-16T10:57:53.706Z,1.25
2023-03-16T10:59:59.646Z,0.80
2023-03-16T11:02:23.792Z,0.80
2023-03-16T11:04:25.639Z,1.10
2023-03-16T11:06:33.332Z,0.85
2023-03-16T11:08:38.887Z,1.17
2023-03-16T11:10:55.233Z,1.10
2023-03-16T11:13:11.333Z,0.80
2023-03-16T11:15:25.254Z,1.02
2023-03-16T11:17:36.371Z,1.08
2023-03-16T11:20:01.799Z,0.90
2023-03-16T11:22:17.468Z,1.20
2023-03-16T11:24:24.618Z,0.80
2023-03-16T11:26:34.170Z,0.82
2023-03-16T11:28:40.049Z,0.98
2023-03-16T11:31:11.718Z,0.80
2023-03-16T11:33:15.488Z,0.90
2023-03-16T11:35:20.529Z,1.00
2023-03-16T11:37:39.478Z,1.10
2023-03-16T11:40:09.462Z,0.82
2023-03-16T11:42:29.122Z,0.90
2023-03-16T11:45:10.039Z,0.80
2023-03-16T11:47:29.812Z,0.90
2023-03-16T11:49:52.876Z,1.00
2023-03-16T11:52:17.225Z,1.20
2023-03-16T11:54:50.229Z,1.00
2023-03-16T11:57:06.921Z,1.00
2023-03-16T11:59:52.029Z,1.08
2023-03-16T12:02:10.103Z,0.93
2023-03-16T12:04:20.693Z,1.10
2023-03-16T12:07:01.023Z,0.90
2023-03-16T12:09:22.913Z,1.20
2023-03-16T12:11:35.654Z,0.90
2023-03-16T12:14:18.953Z,1.02
2023-03-16T12:16:39.109Z,0.90
2023-03-16T12:19:13.773Z,1.10
2023-03-16T12:21:21.851Z,0.90
2023-03-16T12:23:32.106Z,1.08
2023-03-16T12:25:39.508Z,1.00
2023-03-16T12:27:42.862Z,1.00
2023-03-16T12:29:56.898Z,0.90
2023-03-16T12:32:22.562Z,0.90
2023-03-16T12:34:44.079Z,1.40
2023-03-16T12:37:07.390Z,1.10
2023-03-16T12:39:18.688Z,1.55
2023-03-16T12:41:52.469Z,1.55
2023-03-16T12:44:07.512Z,1.60
2023-03-16T12:46:14.461Z,1.30
2023-03-16T12:48:28.335Z,1.48
2023-03-16T12:50:30.178Z,1.50
2023-03-16T12:52:43.099Z,1.48
2023-03-16T12:55:07.538Z,1.58
2023-03-16T12:57:15.601Z,1.48
2023-03-16T12:59:22.768Z,1.08
2023-03-16T13:01:54.526Z,1.30
2023-03-16T13:04:10.794Z,1.10
2023-03-16T13:06:23.538Z,1.05
2023-03-16T13:08:25.796Z,1.10
2023-03-16T13:10:31.376Z,0.98
2023-03-16T13:12:38.427Z,0.82
2023-03-16T13:14:43.192Z,1.13
2023-03-16T13:16:45.592Z,0.80
2023-03-16T13:18:52.076Z,1.00
2023-03-16T13:21:13.071Z,1.13
2023-03-16T13:23:20.464Z,1.02
2023-03-16T13:25:37.943Z,0.90
2023-03-16T13:27:40.792Z,1.13
2023-03-16T13:29:53.649Z,1.25
2023-03-16T13:31:59.143Z,1.00
2023-03-16T13:34:07.017Z,0.90
2023-03-16T13:36:11.926Z,0.93
2023-03-16T13:38:16.291Z,0.85
2023-03-16T13:40:24.833Z,0.80
2023-03-16T13:42:32.386Z,0.80
2023-03-16T13:44:34.865Z,0.90
2023-03-16T13:46:36.330Z,0.88
2023-03-16T13:48:40.203Z,1.13
2023-03-16T13:50:43.232Z,1.20
2023-03-16T13:53:04.850Z,1.20
2023-03-16T13:55:16.153Z,1.27
2023-03-16T13:57:23.450Z,1.30
2023-03-16T13:59:26.356Z,1.30
2023-03-16T14:01:31.022Z,1.35
2023-03-16T14:03:38.852Z,1.10
2023-03-16T14:05:40.851Z,1.63
2023-03-16T14:07:42.302Z,1.48
2023-03-16T14:09:46.619Z,1.10
2023-03-16T14:11:48.773Z,1.10
2023-03-16T14:13:54.642Z,1.23
2023-03-16T14:15:59.999Z,1.30
2023-03-16T14:18:14.272Z,1.00
2023-03-16T14:20:22.116Z,1.30
2023-03-16T14:22:30.917Z,1.13
2023-03-16T14:24:38.350Z,1.42
2023-03-16T14:26:41.794Z,1.30
2023-03-16T14:29:01.249Z,1.05
2023-03-16T14:31:06.714Z,1.20
2023-03-16T14:33:26.480Z,1.13
2023-03-16T14:35:41.595Z,1.10
2023-03-16T14:37:44.900Z,1.27
2023-03-16T14:39:58.466Z,1.17
2023-03-16T14:42:03.096Z,1.17
2023-03-16T14:44:05.713Z,1.30
2023-03-16T14:46:16.897Z,0.90
2023-03-16T14:48:21.173Z,1.20
2023-03-16T14:50:28.361Z,1.30
2023-03-16T14:52:33.973Z,1.40
2023-03-16T14:54:35.533Z,1.10
2023-03-16T14:56:37.386Z,0.90
2023-03-16T14:58:39.538Z,1.17
2023-03-16T15:00:52.699Z,1.08
2023-03-16T15:03:07.660Z,1.15
2023-03-16T15:05:17.220Z,1.30
2023-03-16T15:07:25.085Z,1.00
2023-03-16T15:09:39.111Z,0.98
2023-03-16T15:11:43.238Z,0.82
2023-03-16T15:13:46.608Z,0.90
2023-03-16T15:15:48.584Z,0.90
2023-03-16T15:17:53.668Z,1.02
2023-03-16T15:19:55.553Z,0.80
2023-03-16T15:21:58.874Z,0.73
2023-03-16T15:24:00.511Z,0.73
2023-03-16T15:26:02.919Z,0.90
2023-03-16T15:28:11.767Z,0.90
2023-03-16T15:30:26.024Z,1.00
2023-03-16T15:32:27.609Z,0.90
2023-03-16T15:34:31.872Z,1.00
2023-03-16T15:36:33.541Z,1.10
2023-03-16T15:38:39.664Z,1.23
2023-03-16T15:40:42.933Z,1.10
2023-03-16T15:42:46.802Z,1.10
2023-03-16T15:44:48.407Z,1.10
2023-03-16T15:46:50.222Z,1.00
2023-03-16T15:48:51.664Z,1.00
2023-03-16T15:50:57.680Z,1.17
2023-03-16T15:53:09.031Z,0.98
2023-03-16T15:55:20.866Z,1.00
2023-03-16T15:57:22.752Z,1.20
2023-03-16T15:59:24.926Z,1.20
2023-03-16T16:01:35.784Z,0.95
2023-03-16T16:03:37.399Z,1.20
2023-03-16T16:05:39.392Z,1.10
2023-03-16T16:07:41.459Z,1.15
2023-03-16T16:09:43.223Z,1.20
2023-03-16T16:11:47.130Z,1.13
2023-03-16T16:13:49.076Z,1.08
2023-03-16T16:15:50.551Z,1.30
2023-03-16T16:18:19.158Z,1.00
2023-03-16T16:20:27.211Z,1.25
2023-03-16T16:22:28.960Z,1.20
2023-03-16T16:24:30.498Z,1.25
2023-03-16T16:29:00.838Z,1.05
2023-03-16T16:31:03.837Z,1.00
2023-03-16T16:33:21.415Z,1.30
2023-03-16T16:35:28.716Z,1.50
2023-03-16T16:37:30.397Z,1.15
2023-03-16T16:39:33.151Z,1.63
2023-03-16T16:41:36.470Z,1.00
2023-03-16T16:43:42.775Z,1.20
2023-03-16T16:45:44.429Z,1.25
2023-03-16T16:47:48.065Z,1.20
2023-03-16T16:49:51.073Z,1.40
2023-03-16T16:51:53.242Z,1.27
2023-03-16T16:53:59.499Z,1.10
2023-03-16T16:56:02.130Z,1.63
2023-03-16T16:58:07.746Z,1.30
2023-03-16T17:00:23.756Z,1.27
2023-03-16T17:02:30.413Z,1.50
2023-03-16T17:04:32.170Z,1.30
2023-03-16T17:06:34.382Z,1.52
2023-03-16T17:08:36.453Z,1.50
2023-03-16T17:10:38.485Z,1.50
2023-03-16T17:12:40.694Z,1.63
2023-03-16T17:14:42.586Z,1.55
2023-03-16T17:16:44.906Z,1.70
2023-03-16T17:18:48.524Z,1.92
2023-03-16T17:20:50.749Z,1.63
2023-03-16T17:23:00.047Z,1.60
2023-03-16T17:25:09.090Z,1.98
2023-03-16T17:27:16.368Z,1.90
2023-03-16T17:29:44.010Z,1.75
2023-03-16T17:32:01.965Z,2.10
2023-03-16T17:34:17.916Z,2.08
2023-03-16T17:36:32.564Z,2.00
2023-03-16T17:38:37.261Z,2.55
2023-03-16T17:40:39.201Z,2.00
2023-03-16T17:42:41.279Z,2.35
2023-03-16T17:44:46.481Z,2.58
2023-03-16T17:46:48.756Z,2.25
2023-03-16T17:48:52.851Z,2.65
2023-03-16T17:50:55.018Z,2.70
2023-03-16T17:52:56.772Z,2.33
2023-03-16T17:54:58.333Z,2.85
2023-03-16T17:57:00.232Z,2.53
2023-03-16T17:59:11.787Z,2.60
2023-03-16T18:01:14.525Z,2.70
2023-03-16T18:03:17.627Z,2.85
2023-03-16T18:05:26.530Z,3.00
2023-03-16T18:07:28.144Z,2.92
2023-03-16T18:09:29.678Z,3.20
2023-03-16T18:11:35.949Z,2.80
2023-03-16T18:13:40.156Z,3.00
2023-03-16T18:15:41.765Z,3.45
2023-03-16T18:17:43.443Z,3.55
2023-03-16T18:19:46.826Z,3.90
2023-03-16T18:21:49.107Z,3.78
2023-03-16T18:23:52.164Z,4.03
2023-03-16T18:26:01.203Z,4.10
2023-03-16T18:28:02.749Z,3.38
2023-03-16T18:30:05.317Z,3.40
2023-03-16T18:32:08.176Z,3.60
2023-03-16T18:34:21.779Z,3.67
2023-03-16T18:36:34.734Z,3.40
2023-03-16T18:38:39.249Z,3.13
2023-03-16T18:40:41.440Z,3.22
2023-03-16T18:42:43.100Z,3.10
2023-03-16T18:44:44.702Z,3.13
2023-03-16T18:46:47.913Z,2.92
2023-03-16T18:48:50.672Z,2.88
2023-03-16T18:50:52.627Z,2.50
2023-03-16T18:52:55.651Z,2.70
2023-03-16T18:54:58.202Z,2.85
2023-03-16T18:57:00.235Z,2.45
2023-03-16T18:59:02.212Z,2.95
2023-03-16T19:01:21.407Z,2.97
2023-03-16T19:03:33.349Z,3.30
2023-03-16T19:05:37.857Z,3.38
2023-03-16T19:07:46.320Z,3.05
2023-03-16T19:09:48.297Z,3.47
2023-03-16T19:11:50.255Z,3.15
2023-03-16T19:13:54.663Z,3.22
2023-03-16T19:15:57.805Z,3.10
2023-03-16T19:17:59.848Z,3.55
2023-03-16T19:20:05.843Z,3.03
2023-03-16T19:22:15.814Z,3.15
2023-03-16T19:24:24.780Z,3.00
2023-03-16T19:26:26.594Z,3.30
2023-03-16T19:28:33.975Z,3.00
2023-03-16T19:30:36.051Z,2.97
2023-03-16T19:32:38.552Z,3.25
2023-03-16T19:34:44.484Z,3.13
2023-03-16T19:36:46.007Z,3.15
2023-03-16T19:38:50.491Z,2.85
2023-03-16T19:40:59.429Z,3.30
2023-03-16T19:43:30.166Z,3.08
2023-03-16T19:45:35.873Z,3.13
2023-03-16T19:47:37.555Z,2.90
2023-03-16T19:49:39.047Z,2.75
2023-03-16T19:51:40.590Z,3.08
2023-03-16T19:53:42.625Z,3.30
2023-03-16T19:55:46.942Z,3.50
2023-03-16T19:57:59.051Z,3.13
2023-03-16T20:00:00.589Z,2.95
2023-03-16T20:02:02.381Z,3.25
2023-03-16T20:04:04.457Z,2.40
2023-03-16T20:06:06.475Z,3.00
2023-03-16T20:08:23.982Z,2.65
2023-03-16T20:10:28.713Z,2.80
2023-03-16T20:12:31.130Z,3.05
2023-03-16T20:14:33.431Z,2.78
2023-03-16T20:16:36.084Z,2.88
2023-03-16T20:18:37.761Z,2.85
2023-03-16T20:20:40.154Z,2.58
2023-03-16T20:22:42.121Z,2.58
2023-03-16T20:24:45.163Z,2.90
2023-03-16T20:26:51.448Z,2.53
2023-03-16T20:28:58.201Z,2.50
2023-03-16T20:31:00.167Z,3.17
2023-03-16T20:33:02.169Z,7.07
2023-03-16T20:35:03.783Z,10.23
2023-03-16T20:37:23.786Z,10.55
2023-03-16T20:39:25.657Z,8.85
2023-03-16T20:41:30.969Z,7.05
2023-03-16T20:43:32.792Z,5.78
2023-03-16T20:45:34.480Z,4.57
2023-03-16T20:47:36.261Z,4.07
2023-03-16T20:49:40.659Z,3.60
2023-03-16T20:51:43.255Z,3.08
2023-03-16T20:53:46.844Z,3.15
2023-03-16T20:55:50.333Z,3.58
2023-03-16T20:57:53.882Z,4.22
2023-03-16T20:59:56.594Z,4.80
2023-03-16T21:01:58.410Z,5.63
2023-03-16T21:04:00.132Z,5.82
2023-03-16T21:06:01.698Z,5.82
2023-03-16T21:08:03.308Z,5.88
2023-03-16T21:10:05.493Z,5.97
2023-03-16T21:12:12.794Z,8.07
2023-03-16T21:14:32.417Z,6.72
2023-03-16T21:16:34.736Z,7.45
2023-03-16T21:18:36.660Z,5.85
2023-03-16T21:20:38.190Z,6.15
2023-03-16T21:22:39.683Z,6.25
2023-03-16T21:24:41.209Z,6.78
2023-03-16T21:26:43.986Z,8.55
2023-03-16T21:28:55.782Z,9.98
2023-03-16T21:30:59.802Z,10.68
2023-03-16T21:33:02.061Z,10.90
2023-03-16T21:35:04.246Z,10.13
2023-03-16T21:37:13.435Z,9.48
2023-03-16T21:39:19.578Z,8.95
2023-03-16T21:41:23.087Z,8.35
2023-03-16T21:43:24.882Z,6.68
2023-03-16T21:45:26.854Z,6.82
2023-03-16T21:47:29.540Z,6.00
2023-03-16T21:49:36.755Z,5.95
2023-03-16T21:51:42.747Z,5.50
2023-03-16T21:53:45.000Z,4.75
2023-03-16T21:55:47.251Z,4.93
2023-03-16T21:57:49.452Z,4.40
2023-03-16T21:59:51.082Z,4.50
2023-03-16T22:02:01.924Z,4.45
2023-03-16T22:04:14.084Z,4.55
2023-03-16T22:06:15.727Z,4.22
2023-03-16T22:08:27.001Z,4.70
2023-03-16T22:10:31.505Z,4.03
2023-03-16T22:12:33.067Z,4.47
2023-03-16T22:14:34.701Z,5.30
2023-03-16T22:16:38.125Z,5.50
2023-03-16T22:18:39.649Z,6.15
2023-03-16T22:20:41.486Z,6.72
2023-03-16T22:22:43.059Z,6.68
2023-03-16T22:24:44.856Z,6.65
2023-03-16T22:26:48.948Z,6.85
2023-03-16T22:28:53.233Z,6.63
2023-03-16T22:30:56.729Z,7.10
2023-03-16T22:33:05.886Z,7.57
2023-03-16T22:35:41.994Z,7.55
2023-03-16T22:37:43.539Z,7.32
2023-03-16T22:39:48.140Z,6.65
2023-03-16T22:41:51.216Z,6.68
2023-03-16T22:44:02.356Z,8.65
2023-03-16T22:46:04.874Z,11.25
2023-03-16T22:48:22.149Z,15.13
2023-03-16T22:50:27.471Z,14.32
2023-03-16T22:52:32.612Z,12.73
2023-03-16T22:54:34.143Z,11.07
2023-03-16T22:56:36.059Z,8.15
2023-03-16T22:58:42.264Z,6.90
2023-03-16T23:00:44.727Z,5.18
2023-03-16T23:02:46.345Z,4.82
2023-03-16T23:04:52.272Z,3.35
2023-03-16T23:06:53.929Z,3.35
2023-03-16T23:08:56.074Z,3.40
2023-03-16T23:10:57.715Z,2.70
2023-03-16T23:13:00.290Z,3.25
2023-03-16T23:15:02.250Z,2.85
2023-03-16T23:17:03.970Z,2.97
2023-03-16T23:19:25.138Z,3.20
2023-03-16T23:21:28.977Z,2.53
2023-03-16T23:23:30.589Z,2.92
2023-03-16T23:25:32.023Z,2.80
2023-03-16T23:27:33.478Z,2.95
2023-03-16T23:29:35.176Z,3.00
2023-03-16T23:31:36.921Z,2.33
2023-03-16T23:33:39.051Z,2.53
2023-03-16T23:35:47.073Z,2.13
2023-03-16T23:37:49.979Z,2.28
2023-03-16T23:39:51.505Z,2.25
2023-03-16T23:41:53.094Z,2.42
2023-03-16T23:43:54.729Z,2.72
2023-03-16T23:45:56.568Z,2.50
2023-03-16T23:48:01.221Z,2.55
2023-03-16T23:50:03.279Z,2.58
2023-03-16T23:52:05.302Z,2.65
2023-03-16T23:54:23.168Z,2.80
2023-03-16T23:56:26.960Z,2.28
2023-03-16T23:58:28.588Z,2.42
